Airport View

Enter AWOS ICAO identifier for current METAR.

ex. KFNL

KTIW 190553Z AUTO 19008KT 10SM BKN037 OVC048 12/10 A3009 RMK AO2 SLP189 60001 T01220100 10167 20122 50001

19 Apr 2019 06:56

Phone: 253-858-6507

Other Area AWOS: KTCM - KGRF - KSEA - KPWT

TAF KTCM 190503Z 1905/2011 VRB06KT 8000 -RA BKN010 OVC050 QNH2998INS BECMG 2000/2001 VRB06KT 8000 -RA BKN030 620609 QNH3001INS BECMG 2005/2006 VRB06KT 9999 NSW BKN050 610509 QNH3003INS TX15/1905Z TN07/2005Z